createdAt,value
2019-01-30T00:00:21.705Z,6.55
2019-01-30T00:02:50.284Z,8.85
2019-01-30T00:05:18.874Z,8.55
2019-01-30T00:07:47.451Z,8.40
2019-01-30T00:10:16.034Z,7.50
2019-01-30T00:12:44.602Z,6.70
2019-01-30T00:15:13.479Z,7.50
2019-01-30T00:17:42.042Z,8.40
2019-01-30T00:20:12.679Z,7.33
2019-01-30T00:22:41.316Z,7.65
2019-01-30T00:25:11.638Z,7.80
2019-01-30T00:27:40.278Z,7.87
2019-01-30T00:30:20.251Z,8.63
2019-01-30T00:32:48.878Z,9.45
2019-01-30T00:35:17.480Z,10.13
2019-01-30T00:37:46.042Z,8.88
2019-01-30T00:40:20.305Z,9.03
2019-01-30T00:42:48.943Z,9.43
2019-01-30T00:45:18.974Z,9.60
2019-01-30T00:47:47.538Z,8.60
2019-01-30T00:50:17.667Z,8.35
2019-01-30T00:52:46.234Z,7.60
2019-01-30T00:55:15.367Z,8.28
2019-01-30T00:57:44.075Z,7.42
2019-01-30T01:00:21.287Z,9.30
2019-01-30T01:02:49.927Z,9.18
2019-01-30T01:05:18.594Z,7.50
2019-01-30T01:07:47.159Z,7.03
2019-01-30T01:10:17.595Z,7.70
2019-01-30T01:12:46.302Z,6.90
2019-01-30T01:15:16.432Z,8.20
2019-01-30T01:17:45.438Z,7.85
2019-01-30T01:20:16.727Z,8.43
2019-01-30T01:22:45.444Z,8.50
2019-01-30T01:25:15.975Z,8.50
2019-01-30T01:27:44.782Z,7.45
2019-01-30T01:30:25.639Z,6.55
2019-01-30T01:32:54.530Z,7.53
2019-01-30T01:35:23.346Z,6.70
2019-01-30T01:37:51.986Z,7.10
2019-01-30T01:40:20.675Z,6.65
2019-01-30T01:42:49.255Z,7.70
2019-01-30T01:45:22.537Z,6.70
2019-01-30T01:47:51.168Z,6.95
2019-01-30T01:50:21.095Z,7.22
2019-01-30T01:52:49.721Z,7.40
2019-01-30T01:55:18.307Z,7.80
2019-01-30T01:57:46.884Z,7.22
2019-01-30T02:00:18.075Z,6.90
2019-01-30T02:02:46.638Z,7.95
2019-01-30T02:05:19.734Z,7.97
2019-01-30T02:07:48.308Z,7.95
2019-01-30T02:10:19.126Z,7.90
2019-01-30T02:12:47.776Z,8.88
2019-01-30T02:15:18.398Z,8.45
2019-01-30T02:17:47.108Z,9.95
2019-01-30T02:20:20.778Z,9.13
2019-01-30T02:22:49.339Z,9.80
2019-01-30T02:25:17.931Z,8.45
2019-01-30T02:27:46.571Z,8.98
2019-01-30T02:30:23.364Z,9.58
2019-01-30T02:32:51.936Z,8.70
2019-01-30T02:35:20.756Z,8.70
2019-01-30T02:37:49.328Z,8.85
2019-01-30T02:40:19.554Z,9.25
2019-01-30T02:42:48.122Z,9.45
2019-01-30T02:45:19.316Z,8.25
2019-01-30T02:47:47.956Z,9.53
2019-01-30T02:50:20.199Z,10.40
2019-01-30T02:52:48.831Z,9.73
2019-01-30T02:55:19.656Z,9.78
2019-01-30T02:57:48.288Z,9.40
2019-01-30T03:00:21.976Z,11.70
2019-01-30T03:02:50.625Z,11.12
2019-01-30T03:05:19.350Z,10.63
2019-01-30T03:07:47.927Z,10.18
2019-01-30T03:10:18.242Z,12.15
2019-01-30T03:12:46.888Z,10.72
2019-01-30T03:15:17.408Z,11.50
2019-01-30T03:17:46.219Z,9.53
2019-01-30T03:20:22.613Z,10.80
2019-01-30T03:22:51.243Z,11.00
2019-01-30T03:25:21.671Z,8.93
2019-01-30T03:27:50.234Z,9.90
2019-01-30T03:30:27.051Z,11.73
2019-01-30T03:32:55.642Z,10.40
2019-01-30T03:35:24.395Z,10.20
2019-01-30T03:37:53.030Z,9.28
2019-01-30T03:40:21.996Z,11.48
2019-01-30T03:42:50.646Z,10.60
2019-01-30T03:45:23.867Z,9.75
2019-01-30T03:47:52.675Z,10.05
2019-01-30T03:50:21.326Z,8.70
2019-01-30T03:52:49.905Z,8.10
2019-01-30T03:55:20.224Z,8.40
2019-01-30T03:57:48.864Z,8.20
2019-01-30T04:00:23.432Z,9.10
2019-01-30T04:02:52.337Z,7.45
2019-01-30T04:05:21.167Z,8.80
2019-01-30T04:07:49.734Z,8.45
2019-01-30T04:10:23.178Z,9.10
2019-01-30T04:12:51.813Z,8.38
2019-01-30T04:15:20.679Z,7.42
2019-01-30T04:17:49.244Z,8.15
2019-01-30T04:20:19.474Z,7.90
2019-01-30T04:22:48.393Z,7.92
2019-01-30T04:25:17.109Z,6.90
2019-01-30T04:27:45.673Z,7.65
2019-01-30T04:30:17.168Z,8.05
2019-01-30T04:32:45.727Z,7.22
2019-01-30T04:35:14.382Z,7.95
2019-01-30T04:37:42.958Z,7.60
2019-01-30T04:40:14.579Z,7.33
2019-01-30T04:42:43.165Z,6.60
2019-01-30T04:45:22.650Z,6.50
2019-01-30T04:47:51.199Z,7.03
2019-01-30T04:50:19.866Z,6.80
2019-01-30T04:52:48.669Z,7.10
2019-01-30T04:55:17.809Z,8.10
2019-01-30T04:57:46.383Z,6.80
2019-01-30T05:00:20.692Z,7.28
2019-01-30T05:02:49.396Z,7.70
2019-01-30T05:05:18.001Z,6.75
2019-01-30T05:07:46.553Z,6.87
2019-01-30T05:10:15.362Z,7.10
2019-01-30T05:12:44.020Z,7.50
2019-01-30T05:15:17.559Z,8.23
2019-01-30T05:17:46.265Z,7.17
2019-01-30T05:20:19.506Z,8.05
2019-01-30T05:22:48.162Z,8.10
2019-01-30T05:25:16.885Z,6.47
2019-01-30T05:27:45.480Z,6.67
2019-01-30T05:30:19.755Z,7.37
2019-01-30T05:32:48.322Z,6.45
2019-01-30T05:35:16.890Z,7.22
2019-01-30T05:37:45.491Z,7.15
2019-01-30T05:40:16.487Z,5.90
2019-01-30T05:42:45.078Z,6.17
2019-01-30T05:45:15.984Z,7.28
2019-01-30T05:47:44.654Z,6.47
2019-01-30T05:50:14.465Z,6.05
2019-01-30T05:52:43.293Z,6.35
2019-01-30T05:55:14.091Z,5.55
2019-01-30T05:57:42.750Z,5.85
2019-01-30T06:00:25.234Z,5.90
2019-01-30T06:02:53.824Z,3.83
2019-01-30T06:05:22.459Z,5.25
2019-01-30T06:07:51.052Z,5.00
2019-01-30T06:10:19.695Z,5.55
2019-01-30T06:12:48.343Z,6.33
2019-01-30T06:15:19.064Z,5.33
2019-01-30T06:17:47.651Z,6.67
2019-01-30T06:20:19.058Z,5.65
2019-01-30T06:22:47.710Z,5.50
2019-01-30T06:25:16.286Z,6.08
2019-01-30T06:27:44.876Z,5.25
2019-01-30T06:30:15.979Z,4.78
2019-01-30T06:32:44.638Z,6.20
2019-01-30T06:35:13.338Z,5.67
2019-01-30T06:37:41.926Z,6.53
2019-01-30T06:40:28.258Z,5.33
2019-01-30T06:42:57.016Z,6.87
2019-01-30T06:45:25.719Z,6.17
2019-01-30T06:47:54.460Z,5.55
2019-01-30T06:50:23.031Z,7.00
2019-01-30T06:52:51.610Z,6.00
2019-01-30T06:55:20.179Z,6.20
2019-01-30T06:57:48.812Z,5.92
2019-01-30T07:00:19.615Z,6.08
2019-01-30T07:02:48.340Z,5.67
2019-01-30T07:05:17.082Z,5.70
2019-01-30T07:07:45.672Z,6.80
2019-01-30T07:10:17.047Z,6.20
2019-01-30T07:12:45.636Z,5.72
2019-01-30T07:15:14.452Z,7.15
2019-01-30T07:17:43.043Z,6.20
2019-01-30T07:20:13.943Z,6.70
2019-01-30T07:22:42.703Z,5.95
2019-01-30T07:25:16.544Z,6.78
2019-01-30T07:27:45.139Z,6.40
2019-01-30T07:30:16.707Z,5.80
2019-01-30T07:32:45.308Z,6.55
2019-01-30T07:35:13.938Z,5.85
2019-01-30T07:37:42.603Z,5.60
2019-01-30T07:40:15.680Z,6.00
2019-01-30T07:42:44.263Z,6.42
2019-01-30T07:45:21.345Z,5.53
2019-01-30T07:47:50.071Z,8.18
2019-01-30T07:50:18.644Z,6.12
2019-01-30T07:52:47.303Z,6.85
2019-01-30T07:55:17.112Z,6.90
2019-01-30T07:57:46.063Z,6.28
2019-01-30T08:00:20.342Z,6.45
2019-01-30T08:02:53.461Z,6.92
2019-01-30T08:05:19.306Z,6.78
2019-01-30T08:07:47.966Z,7.55
2019-01-30T08:10:16.971Z,6.30
2019-01-30T08:12:45.563Z,7.28
2019-01-30T08:15:16.270Z,6.58
2019-01-30T08:17:44.872Z,6.45
2019-01-30T08:20:15.567Z,7.60
2019-01-30T08:22:44.171Z,7.30
2019-01-30T08:25:16.350Z,7.20
2019-01-30T08:27:45.394Z,7.67
2019-01-30T08:30:27.473Z,6.72
2019-01-30T08:33:04.291Z,6.20
2019-01-30T08:35:28.686Z,6.28
2019-01-30T08:37:57.267Z,7.85
2019-01-30T08:40:25.832Z,7.03
2019-01-30T08:42:54.589Z,7.03
2019-01-30T08:45:25.187Z,7.45
2019-01-30T08:47:53.766Z,7.58
2019-01-30T08:50:22.399Z,7.97
2019-01-30T08:52:51.059Z,7.45
2019-01-30T08:55:19.618Z,6.80
2019-01-30T08:57:48.366Z,7.47
2019-01-30T09:00:20.012Z,7.85
2019-01-30T09:02:48.932Z,7.45
2019-01-30T09:05:17.654Z,12.37
2019-01-30T09:07:46.286Z,6.65
2019-01-30T09:10:17.578Z,7.80
2019-01-30T09:12:46.280Z,5.90
2019-01-30T09:15:16.999Z,6.85
2019-01-30T09:17:45.699Z,6.90
2019-01-30T09:20:19.117Z,6.28
2019-01-30T09:22:47.673Z,7.05
2019-01-30T09:25:18.312Z,6.40
2019-01-30T09:27:46.939Z,6.70
2019-01-30T09:30:23.780Z,6.45
2019-01-30T09:32:54.997Z,6.30
2019-01-30T09:35:22.721Z,8.25
2019-01-30T09:37:51.295Z,6.78
2019-01-30T09:40:21.506Z,6.95
2019-01-30T09:42:50.126Z,7.72
2019-01-30T09:45:22.813Z,7.05
2019-01-30T09:47:51.367Z,6.90
2019-01-30T09:50:21.619Z,7.90
2019-01-30T09:52:50.722Z,7.40
2019-01-30T09:55:20.639Z,7.62
2019-01-30T09:57:49.276Z,6.35
2019-01-30T10:00:20.981Z,6.03
2019-01-30T10:02:49.498Z,6.90
2019-01-30T10:05:18.160Z,5.75
2019-01-30T10:07:46.719Z,6.90
2019-01-30T10:10:18.210Z,7.70
2019-01-30T10:12:46.774Z,7.65
2019-01-30T10:15:18.396Z,7.40
2019-01-30T10:17:47.095Z,6.60
2019-01-30T10:20:18.595Z,7.10
2019-01-30T10:22:47.563Z,6.95
2019-01-30T10:25:16.184Z,6.83
2019-01-30T10:27:44.872Z,7.37
2019-01-30T10:30:19.082Z,7.28
2019-01-30T10:32:47.642Z,7.45
2019-01-30T10:35:16.215Z,6.85
2019-01-30T10:37:44.806Z,6.75
2019-01-30T10:40:16.051Z,7.55
2019-01-30T10:42:44.686Z,7.17
2019-01-30T10:45:13.475Z,6.95
2019-01-30T10:47:42.059Z,8.33
2019-01-30T10:50:19.539Z,7.08
2019-01-30T10:52:48.122Z,7.40
2019-01-30T10:55:19.232Z,7.78
2019-01-30T10:57:49.246Z,7.25
2019-01-30T11:00:23.263Z,7.58
2019-01-30T11:02:51.847Z,7.30
2019-01-30T11:05:20.543Z,7.12
2019-01-30T11:07:49.128Z,7.28
2019-01-30T11:10:19.327Z,7.42
2019-01-30T11:12:47.992Z,8.20
2019-01-30T11:15:18.899Z,7.42
2019-01-30T11:17:47.483Z,7.33
2019-01-30T11:20:18.391Z,7.40
2019-01-30T11:22:47.238Z,7.62
2019-01-30T11:25:21.556Z,6.92
2019-01-30T11:27:50.130Z,7.20
2019-01-30T11:30:19.930Z,7.40
2019-01-30T11:32:48.514Z,7.53
2019-01-30T11:35:17.147Z,8.00
2019-01-30T11:37:45.976Z,7.50
2019-01-30T11:40:16.876Z,6.95
2019-01-30T11:42:46.030Z,7.12
2019-01-30T11:45:17.200Z,7.40
2019-01-30T11:47:45.927Z,6.37
2019-01-30T11:50:16.596Z,6.55
2019-01-30T11:52:45.831Z,7.15
2019-01-30T11:55:18.566Z,7.95
2019-01-30T11:57:47.693Z,6.72
2019-01-30T12:00:31.925Z,6.58
2019-01-30T12:03:00.511Z,6.45
2019-01-30T12:05:29.080Z,6.22
2019-01-30T12:07:57.735Z,5.17
2019-01-30T12:10:26.491Z,6.08
2019-01-30T12:12:55.031Z,5.97
2019-01-30T12:15:25.030Z,7.15
2019-01-30T12:17:53.614Z,5.70
2019-01-30T12:20:22.244Z,6.37
2019-01-30T12:22:51.080Z,6.22
2019-01-30T12:25:23.537Z,5.35
2019-01-30T12:27:53.391Z,6.05
2019-01-30T12:30:29.032Z,6.00
2019-01-30T12:32:57.986Z,6.05
2019-01-30T12:35:26.624Z,6.90
2019-01-30T12:37:55.205Z,5.87
2019-01-30T12:40:24.815Z,5.80
2019-01-30T12:42:53.647Z,6.30
2019-01-30T12:45:30.138Z,6.05
2019-01-30T12:47:59.194Z,5.67
2019-01-30T12:50:27.995Z,5.47
2019-01-30T12:52:56.590Z,5.85
2019-01-30T12:55:25.220Z,5.90
2019-01-30T12:57:53.811Z,5.30
2019-01-30T13:00:24.812Z,5.72
2019-01-30T13:02:53.739Z,5.65
2019-01-30T13:05:23.848Z,5.42
2019-01-30T13:07:52.501Z,5.20
2019-01-30T13:10:21.227Z,5.33
2019-01-30T13:12:49.956Z,5.45
2019-01-30T13:15:21.126Z,4.80
2019-01-30T13:17:49.992Z,4.40
2019-01-30T13:20:20.286Z,4.83
2019-01-30T13:22:48.951Z,4.67
2019-01-30T13:25:20.599Z,5.15
2019-01-30T13:27:49.182Z,4.53
2019-01-30T13:30:32.124Z,4.83
2019-01-30T13:33:01.653Z,4.62
2019-01-30T13:35:30.464Z,4.50
2019-01-30T13:37:59.115Z,4.92
2019-01-30T13:40:29.910Z,4.65
2019-01-30T13:42:58.498Z,4.90
2019-01-30T13:45:27.895Z,4.28
2019-01-30T13:47:57.034Z,4.00
2019-01-30T13:50:27.159Z,4.80
2019-01-30T13:52:56.152Z,3.65
2019-01-30T13:55:24.866Z,4.15
2019-01-30T13:57:53.453Z,3.75
2019-01-30T14:00:27.388Z,4.03
2019-01-30T14:02:55.964Z,4.20
2019-01-30T14:05:25.395Z,3.70
2019-01-30T14:07:54.322Z,4.05
2019-01-30T14:10:23.172Z,3.75
2019-01-30T14:12:51.728Z,4.10
2019-01-30T14:15:26.070Z,3.62
2019-01-30T14:17:54.653Z,4.60
2019-01-30T14:20:23.229Z,3.87
2019-01-30T14:22:51.786Z,4.00
2019-01-30T14:25:20.525Z,3.87
2019-01-30T14:27:49.119Z,3.77
2019-01-30T14:30:26.142Z,3.90
2019-01-30T14:32:54.713Z,4.40
2019-01-30T14:35:24.843Z,3.95
2019-01-30T14:37:53.766Z,4.22
2019-01-30T14:40:23.272Z,3.45
2019-01-30T14:42:52.263Z,4.20
2019-01-30T14:45:21.221Z,3.90
2019-01-30T14:47:51.282Z,4.90
2019-01-30T14:50:22.159Z,5.10
2019-01-30T14:52:50.894Z,3.75
2019-01-30T14:55:19.820Z,3.37
2019-01-30T14:57:49.352Z,4.22
2019-01-30T15:00:26.611Z,4.00
2019-01-30T15:02:55.449Z,4.53
2019-01-30T15:05:24.343Z,4.50
2019-01-30T15:07:53.257Z,4.75
2019-01-30T15:10:24.142Z,5.97
2019-01-30T15:12:52.811Z,5.35
2019-01-30T15:15:26.179Z,4.50
2019-01-30T15:17:54.815Z,4.83
2019-01-30T15:20:25.815Z,5.03
2019-01-30T15:22:54.515Z,4.55
2019-01-30T15:25:24.341Z,5.83
2019-01-30T15:27:52.900Z,6.08
2019-01-30T15:30:24.560Z,5.62
2019-01-30T15:32:53.859Z,4.00
2019-01-30T15:35:32.919Z,5.97
2019-01-30T15:37:52.663Z,5.33
2019-01-30T15:40:26.536Z,5.30
2019-01-30T15:42:55.363Z,5.50
2019-01-30T15:45:25.185Z,4.28
2019-01-30T15:47:53.819Z,5.10
2019-01-30T15:50:27.400Z,5.28
2019-01-30T15:52:56.699Z,5.37
2019-01-30T15:55:25.432Z,5.97
2019-01-30T15:57:56.530Z,8.83
2019-01-30T16:00:29.488Z,6.95
2019-01-30T16:02:58.128Z,8.75
2019-01-30T16:05:26.711Z,8.95
2019-01-30T16:07:55.278Z,8.90
2019-01-30T16:10:23.906Z,8.20
2019-01-30T16:12:52.499Z,8.98
2019-01-30T16:15:26.808Z,7.17
2019-01-30T16:17:55.473Z,7.37
2019-01-30T16:20:23.963Z,5.60
2019-01-30T16:22:52.618Z,7.47
2019-01-30T16:25:21.179Z,7.78
2019-01-30T16:27:49.835Z,8.10
2019-01-30T16:30:20.638Z,7.50
2019-01-30T16:32:49.222Z,7.75
2019-01-30T16:35:20.896Z,9.78
2019-01-30T16:37:49.872Z,7.65
2019-01-30T16:40:19.106Z,9.70
2019-01-30T16:42:47.815Z,12.25
2019-01-30T16:45:19.287Z,8.25
2019-01-30T16:47:47.875Z,8.40
2019-01-30T16:50:17.186Z,8.78
2019-01-30T16:52:46.288Z,7.37
2019-01-30T16:55:22.535Z,9.58
2019-01-30T16:57:51.447Z,9.25
2019-01-30T17:00:28.529Z,8.78
2019-01-30T17:02:57.864Z,9.23
2019-01-30T17:05:27.007Z,9.40
2019-01-30T17:07:55.663Z,9.18
2019-01-30T17:10:24.371Z,9.63
2019-01-30T17:12:52.958Z,7.87
2019-01-30T17:15:29.216Z,9.25
2019-01-30T17:17:58.014Z,8.00
2019-01-30T17:20:28.835Z,8.35
2019-01-30T17:22:57.584Z,10.90
2019-01-30T17:25:26.687Z,8.43
2019-01-30T17:27:55.425Z,8.80
2019-01-30T17:30:29.914Z,9.18
2019-01-30T17:32:58.567Z,9.05
2019-01-30T17:35:29.929Z,9.90
2019-01-30T17:37:58.519Z,9.15
2019-01-30T17:40:29.484Z,8.98
2019-01-30T17:42:58.144Z,9.15
2019-01-30T17:45:27.297Z,9.68
2019-01-30T17:47:56.099Z,9.65
2019-01-30T17:50:26.794Z,8.58
2019-01-30T17:52:56.591Z,8.75
2019-01-30T17:55:26.139Z,9.65
2019-01-30T17:57:55.388Z,10.00
2019-01-30T18:00:28.707Z,9.88
2019-01-30T18:02:57.439Z,10.18
2019-01-30T18:05:26.015Z,10.15
2019-01-30T18:07:54.603Z,12.03
2019-01-30T18:10:23.174Z,10.93
2019-01-30T18:12:51.772Z,11.22
2019-01-30T18:15:20.334Z,10.72
2019-01-30T18:17:48.918Z,10.72
2019-01-30T18:20:19.792Z,11.22
2019-01-30T18:22:48.722Z,11.38
2019-01-30T18:25:20.919Z,9.35
2019-01-30T18:27:49.576Z,9.70
2019-01-30T18:30:21.935Z,8.93
2019-01-30T18:32:50.590Z,10.28
2019-01-30T18:35:19.227Z,10.13
2019-01-30T18:37:47.823Z,9.80
2019-01-30T18:40:18.537Z,9.78
2019-01-30T18:42:47.473Z,8.90
2019-01-30T18:45:21.132Z,10.18
2019-01-30T18:47:49.784Z,8.55
2019-01-30T18:50:20.958Z,12.58
2019-01-30T18:52:49.678Z,10.98
2019-01-30T18:55:18.483Z,8.83
2019-01-30T18:57:47.324Z,10.20
2019-01-30T19:00:18.891Z,27.48
2019-01-30T19:02:47.880Z,32.20
2019-01-30T19:05:16.587Z,23.32
2019-01-30T19:07:45.175Z,11.85
2019-01-30T19:10:18.063Z,12.60
2019-01-30T19:12:47.083Z,11.25
2019-01-30T19:15:18.567Z,9.60
2019-01-30T19:17:47.453Z,11.75
2019-01-30T19:20:18.755Z,9.25
2019-01-30T19:22:47.348Z,9.15
2019-01-30T19:25:15.923Z,11.12
2019-01-30T19:27:44.503Z,9.73
2019-01-30T19:30:21.783Z,9.40
2019-01-30T19:32:50.548Z,9.20
2019-01-30T19:35:19.187Z,8.85
2019-01-30T19:37:48.319Z,10.00
2019-01-30T19:40:17.528Z,10.80
2019-01-30T19:42:46.126Z,11.35
2019-01-30T19:45:22.587Z,9.93
2019-01-30T19:47:51.185Z,10.68
2019-01-30T19:50:22.453Z,9.95
2019-01-30T19:52:51.183Z,9.35
2019-01-30T19:55:19.747Z,9.00
2019-01-30T19:57:48.335Z,10.45
2019-01-30T20:00:19.642Z,12.45
2019-01-30T20:02:48.302Z,9.23
2019-01-30T20:05:17.000Z,9.33
2019-01-30T20:07:45.725Z,8.90
2019-01-30T20:10:17.414Z,9.75
2019-01-30T20:12:46.065Z,9.18
2019-01-30T20:15:14.796Z,8.98
2019-01-30T20:17:43.379Z,9.85
2019-01-30T20:20:14.751Z,8.35
2019-01-30T20:22:43.571Z,8.88
2019-01-30T20:25:15.138Z,9.95
2019-01-30T20:27:43.723Z,8.88
2019-01-30T20:30:17.568Z,8.40
2019-01-30T20:32:46.295Z,8.93
2019-01-30T20:35:15.226Z,9.00
2019-01-30T20:37:43.785Z,8.45
2019-01-30T20:40:15.088Z,8.78
2019-01-30T20:42:43.771Z,9.53
2019-01-30T20:45:14.166Z,9.05
2019-01-30T20:47:42.823Z,9.10
2019-01-30T20:50:14.522Z,8.63
2019-01-30T20:52:43.110Z,8.55
2019-01-30T20:55:14.079Z,8.80
2019-01-30T20:57:42.769Z,8.15
2019-01-30T21:00:15.003Z,9.73
2019-01-30T21:02:43.640Z,8.38
2019-01-30T21:05:12.662Z,11.90
2019-01-30T21:07:41.226Z,18.87
2019-01-30T21:10:18.788Z,50.95
2019-01-30T21:12:47.372Z,26.23
2019-01-30T21:15:17.191Z,15.95
2019-01-30T21:17:45.814Z,9.23
2019-01-30T21:20:16.636Z,8.33
2019-01-30T21:22:45.203Z,7.87
2019-01-30T21:25:16.602Z,7.20
2019-01-30T21:27:45.163Z,8.63
2019-01-30T21:30:22.363Z,8.55
2019-01-30T21:32:50.926Z,9.90
2019-01-30T21:35:19.588Z,8.43
2019-01-30T21:37:49.291Z,8.20
2019-01-30T21:40:19.146Z,8.78
2019-01-30T21:42:48.647Z,8.10
2019-01-30T21:45:19.080Z,8.60
2019-01-30T21:47:47.876Z,8.08
2019-01-30T21:50:16.800Z,7.70
2019-01-30T21:52:45.362Z,7.95
2019-01-30T21:55:18.586Z,7.30
2019-01-30T21:57:47.224Z,7.35
2019-01-30T22:00:20.967Z,6.83
2019-01-30T22:02:49.530Z,6.95
2019-01-30T22:05:18.191Z,7.10
2019-01-30T22:07:46.756Z,6.75
2019-01-30T22:10:17.948Z,7.15
2019-01-30T22:12:46.506Z,7.72
2019-01-30T22:15:16.626Z,7.47
2019-01-30T22:17:45.267Z,8.13
2019-01-30T22:20:18.726Z,6.97
2019-01-30T22:22:47.290Z,7.17
2019-01-30T22:25:20.338Z,7.15
2019-01-30T22:27:48.593Z,6.67
2019-01-30T22:30:25.133Z,7.20
2019-01-30T22:32:53.701Z,8.05
2019-01-30T22:35:22.339Z,7.25
2019-01-30T22:37:50.975Z,7.83
2019-01-30T22:40:19.567Z,7.70
2019-01-30T22:42:48.137Z,6.37
2019-01-30T22:45:20.956Z,6.12
2019-01-30T22:47:49.591Z,5.97
2019-01-30T22:50:19.614Z,7.22
2019-01-30T22:52:48.246Z,5.92
2019-01-30T22:55:18.673Z,6.80
2019-01-30T22:57:47.232Z,6.97
2019-01-30T23:00:51.422Z,7.08
2019-01-30T23:03:25.658Z,6.20
2019-01-30T23:05:57.319Z,6.37
2019-01-30T23:08:26.423Z,5.97
2019-01-30T23:11:03.684Z,6.65
2019-01-30T23:13:37.904Z,6.12
2019-01-30T23:16:12.242Z,6.60
2019-01-30T23:18:43.879Z,5.28
2019-01-30T23:21:15.543Z,6.25
2019-01-30T23:24:12.429Z,5.50
2019-01-30T23:27:02.150Z,4.60
2019-01-30T23:29:39.425Z,5.42
2019-01-30T23:32:27.346Z,5.05
2019-01-30T23:35:17.635Z,4.78
2019-01-30T23:37:52.879Z,5.03
2019-01-30T23:40:24.698Z,4.97
2019-01-30T23:43:08.167Z,5.15
2019-01-30T23:45:48.250Z,4.20
2019-01-30T23:48:44.940Z,3.62
2019-01-30T23:51:31.302Z,4.40
2019-01-30T23:54:14.743Z,3.87
2019-01-30T23:57:03.845Z,4.97
2019-01-30T23:59:47.150Z,4.85
